Time;durP1;ratioP1;P1;durP2;ratioP2;P2;SDS_P1;SDS_P2;PMS_P1;PMS_P2;Temp;Humidity;BMP_temperature;BMP_pressure;BME280_temperature;BME280_humidity;BME280_pressure;Samples;Min_cycle;Max_cycle;Signal;HPM_P1;HPM_P2
2023/09/22 00:01:49;;;;;;;8.63;2.85;;;20.00;99.30;;;;;;5032365;28;20119;-69
2023/09/22 00:04:14;;;;;;;9.70;3.53;;;19.80;99.70;;;;;;5033185;28;20152;-69
2023/09/22 00:06:41;;;;;;;9.38;2.92;;;19.80;99.80;;;;;;5035953;28;20064;-69
2023/09/22 00:09:09;;;;;;;6.82;2.67;;;19.70;99.90;;;;;;5036261;28;20033;-69
2023/09/22 00:11:36;;;;;;;7.93;2.88;;;19.70;99.90;;;;;;5018142;28;20034;-70
2023/09/22 00:14:01;;;;;;;8.32;2.80;;;19.70;99.90;;;;;;5036139;28;20037;-69
2023/09/22 00:16:27;;;;;;;8.32;2.92;;;19.70;99.90;;;;;;5038218;28;20196;-70
2023/09/22 00:18:53;;;;;;;6.20;2.90;;;19.70;99.90;;;;;;5017885;28;20033;-70
2023/09/22 00:21:19;;;;;;;8.82;3.00;;;19.60;99.90;;;;;;5035677;28;20029;-69
2023/09/22 00:23:45;;;;;;;7.32;3.00;;;19.60;99.90;;;;;;5035556;28;20124;-69
2023/09/22 00:26:10;;;;;;;7.43;2.63;;;19.50;99.90;;;;;;5035943;28;20455;-69
2023/09/22 00:28:36;;;;;;;9.75;2.78;;;19.60;99.90;;;;;;5035526;28;20080;-69
2023/09/22 00:31:01;;;;;;;8.20;2.65;;;19.50;99.90;;;;;;5035605;28;20022;-70
2023/09/22 00:33:27;;;;;;;8.07;2.72;;;19.50;99.90;;;;;;5017706;28;20371;-70
2023/09/22 00:35:53;;;;;;;8.23;2.65;;;19.50;99.90;;;;;;5035498;28;20029;-69
2023/09/22 00:38:18;;;;;;;8.60;2.92;;;19.50;99.90;;;;;;5035631;28;20053;-69
2023/09/22 00:40:44;;;;;;;6.00;2.55;;;19.40;99.90;;;;;;5035009;28;20033;-70
2023/09/22 00:43:11;;;;;;;7.20;2.80;;;19.40;99.90;;;;;;5035788;28;20108;-69
2023/09/22 00:45:42;;;;;;;5.60;2.97;;;19.40;99.90;;;;;;5035182;28;20036;-69
2023/09/22 00:48:22;;;;;;;12.00;3.28;;;19.40;99.90;;;;;;5037986;28;20493;-69
2023/09/22 00:50:48;;;;;;;8.63;2.60;;;19.30;99.90;;;;;;5034851;28;20385;-70
2023/09/22 00:53:14;;;;;;;8.93;2.25;;;19.30;99.90;;;;;;5035573;28;20072;-69
2023/09/22 00:55:40;;;;;;;10.02;2.60;;;19.40;99.90;;;;;;5034723;28;20466;-70
2023/09/22 00:58:06;;;;;;;9.35;2.70;;;19.30;99.90;;;;;;5035032;28;20053;-69
2023/09/22 01:00:33;;;;;;;9.98;2.55;;;19.30;99.90;;;;;;5017271;28;20087;-70
2023/09/22 01:02:59;;;;;;;6.88;2.55;;;19.30;99.90;;;;;;5017551;28;20026;-69
2023/09/22 01:05:25;;;;;;;6.28;2.85;;;19.30;99.90;;;;;;5035310;28;20033;-69
2023/09/22 01:07:51;;;;;;;7.22;2.80;;;19.30;99.90;;;;;;5035241;28;20440;-69
2023/09/22 01:10:17;;;;;;;6.40;2.55;;;19.30;99.90;;;;;;5035072;28;20113;-70
2023/09/22 01:12:42;;;;;;;8.48;2.50;;;19.30;99.90;;;;;;5034717;28;20041;-70
2023/09/22 01:15:09;;;;;;;6.75;2.38;;;19.30;99.90;;;;;;5035160;28;20462;-70
2023/09/22 01:17:35;;;;;;;6.70;2.53;;;19.30;99.90;;;;;;5034656;28;20405;-70
2023/09/22 01:20:05;;;;;;;8.57;2.80;;;19.20;99.90;;;;;;5047925;28;20033;-69
2023/09/22 01:22:33;;;;;;;9.00;2.60;;;19.20;99.90;;;;;;5054649;28;20037;-69
2023/09/22 01:24:59;;;;;;;4.22;2.22;;;19.20;99.90;;;;;;5054975;28;20086;-69
2023/09/22 01:27:25;;;;;;;7.70;2.83;;;19.20;99.90;;;;;;5054565;28;20029;-69
2023/09/22 01:29:50;;;;;;;5.25;2.60;;;19.10;99.90;;;;;;5054040;28;20366;-69
2023/09/22 01:32:16;;;;;;;12.55;2.58;;;19.10;99.90;;;;;;5054448;28;20123;-69
2023/09/22 01:34:41;;;;;;;4.25;2.35;;;19.10;99.90;;;;;;5054198;28;20304;-69
2023/09/22 01:37:07;;;;;;;5.95;2.65;;;19.10;99.90;;;;;;5054374;28;20032;-69
2023/09/22 01:39:36;;;;;;;6.28;2.53;;;19.10;99.90;;;;;;5054021;28;20120;-69
2023/09/22 01:42:02;;;;;;;8.73;2.63;;;19.10;99.90;;;;;;5054454;28;20032;-70
2023/09/22 01:44:27;;;;;;;5.05;2.58;;;19.00;99.90;;;;;;5054446;28;20066;-70
2023/09/22 01:46:53;;;;;;;6.13;2.83;;;19.00;99.90;;;;;;5054625;28;20032;-71
2023/09/22 01:49:19;;;;;;;9.48;3.00;;;19.00;99.90;;;;;;5054373;28;20029;-68
2023/09/22 01:51:44;;;;;;;10.93;2.67;;;19.00;99.90;;;;;;5036033;28;20082;-68
2023/09/22 01:54:10;;;;;;;6.95;2.67;;;19.00;99.90;;;;;;5053912;28;20025;-68
2023/09/22 01:56:36;;;;;;;6.80;2.55;;;19.00;99.90;;;;;;5035631;28;20025;-69
2023/09/22 01:59:01;;;;;;;6.70;2.65;;;19.00;99.90;;;;;;5054179;28;20111;-70
2023/09/22 02:01:27;;;;;;;5.63;2.63;;;19.00;99.90;;;;;;5054128;28;20032;-70
2023/09/22 02:03:52;;;;;;;4.40;2.60;;;19.00;99.90;;;;;;5053655;28;20067;-70
2023/09/22 02:06:18;;;;;;;6.90;2.90;;;19.00;99.90;;;;;;5053670;28;20519;-71
2023/09/22 02:08:44;;;;;;;6.80;2.50;;;19.00;99.90;;;;;;5050586;28;20036;-68
2023/09/22 02:11:11;;;;;;;6.78;2.28;;;18.90;99.90;;;;;;5054009;28;20089;-69
2023/09/22 02:13:37;;;;;;;6.82;2.63;;;19.00;99.90;;;;;;5053481;28;20070;-70
2023/09/22 02:16:04;;;;;;;10.55;2.95;;;18.90;99.90;;;;;;5054050;28;20493;-70
2023/09/22 02:18:29;;;;;;;6.60;2.58;;;18.90;99.90;;;;;;5053652;28;20114;-70
2023/09/22 02:20:56;;;;;;;6.88;2.65;;;18.90;99.90;;;;;;5053232;28;20043;-70
2023/09/22 02:23:24;;;;;;;4.25;2.83;;;18.80;99.90;;;;;;5035880;28;20029;-70
2023/09/22 02:25:50;;;;;;;8.48;3.05;;;18.90;99.90;;;;;;5053006;28;20446;-70
2023/09/22 02:28:15;;;;;;;5.60;2.33;;;18.80;99.90;;;;;;5053589;28;20108;-70
2023/09/22 02:30:41;;;;;;;6.25;2.90;;;18.80;99.90;;;;;;5053165;28;20025;-70
2023/09/22 02:33:08;;;;;;;4.57;2.55;;;18.80;99.90;;;;;;5053227;28;20377;-70
2023/09/22 02:35:33;;;;;;;7.47;2.50;;;18.80;99.90;;;;;;5053008;28;20028;-70
2023/09/22 02:37:59;;;;;;;9.73;2.58;;;18.80;99.90;;;;;;5035540;28;20105;-70
2023/09/22 02:40:24;;;;;;;5.00;2.50;;;18.80;99.90;;;;;;5053259;28;20120;-70
2023/09/22 02:42:50;;;;;;;12.20;2.85;;;18.80;99.90;;;;;;5052950;28;20527;-69
2023/09/22 02:45:16;;;;;;;6.13;2.63;;;18.80;99.90;;;;;;5053317;28;20024;-70
2023/09/22 02:47:41;;;;;;;7.65;2.90;;;18.80;99.90;;;;;;5029653;28;20468;-70
2023/09/22 02:50:09;;;;;;;4.25;2.80;;;18.80;99.90;;;;;;5053160;28;20119;-70
2023/09/22 02:52:36;;;;;;;9.10;2.83;;;18.80;99.90;;;;;;5052823;28;20440;-70
2023/09/22 02:55:03;;;;;;;4.53;2.35;;;18.70;99.90;;;;;;5052830;28;20029;-70
2023/09/22 02:57:29;;;;;;;7.03;3.42;;;18.70;99.90;;;;;;5052873;28;20485;-70
2023/09/22 02:59:54;;;;;;;7.15;2.88;;;18.70;99.90;;;;;;5052584;28;20063;-70
2023/09/22 03:02:20;;;;;;;9.40;3.20;;;18.70;99.90;;;;;;5052682;28;20036;-70
2023/09/22 03:04:49;;;;;;;6.07;2.65;;;18.70;99.90;;;;;;5034850;28;20033;-70
2023/09/22 03:07:14;;;;;;;5.13;2.60;;;18.70;99.90;;;;;;5052640;28;20037;-70
2023/09/22 03:09:40;;;;;;;9.50;3.13;;;18.70;99.90;;;;;;5052477;28;20086;-68
2023/09/22 03:12:06;;;;;;;10.00;2.50;;;18.70;99.90;;;;;;5052838;28;20021;-68
2023/09/22 03:14:32;;;;;;;9.10;2.83;;;18.70;99.90;;;;;;5052832;28;20108;-68
2023/09/22 03:16:59;;;;;;;11.00;3.20;;;18.60;99.90;;;;;;5052350;28;20025;-69
2023/09/22 03:19:25;;;;;;;4.63;2.90;;;18.60;99.90;;;;;;5052824;28;20034;-69
2023/09/22 03:21:50;;;;;;;8.95;3.03;;;18.60;99.90;;;;;;5052367;28;20083;-69
2023/09/22 03:24:16;;;;;;;9.63;2.78;;;18.60;99.90;;;;;;5050387;28;20032;-69
2023/09/22 03:26:42;;;;;;;5.05;2.72;;;18.60;99.90;;;;;;5032277;28;20034;-69
2023/09/22 03:29:07;;;;;;;11.20;3.15;;;18.60;99.90;;;;;;5032712;28;20033;-69
2023/09/22 03:31:33;;;;;;;4.93;2.78;;;18.60;99.90;;;;;;5032357;28;20030;-69
2023/09/22 03:33:58;;;;;;;6.78;2.95;;;18.60;99.90;;;;;;5032213;28;20116;-69
2023/09/22 03:36:24;;;;;;;9.27;3.47;;;18.60;99.90;;;;;;5032703;28;20037;-69
2023/09/22 03:38:51;;;;;;;7.60;3.45;;;18.60;99.90;;;;;;5031274;28;20112;-69
2023/09/22 03:41:18;;;;;;;10.27;2.95;;;18.60;99.90;;;;;;5032565;28;20079;-69
2023/09/22 03:43:44;;;;;;;6.20;2.90;;;18.60;99.90;;;;;;5031971;28;20378;-69
2023/09/22 03:46:10;;;;;;;5.82;2.63;;;18.50;99.90;;;;;;5032584;28;20026;-69
2023/09/22 03:48:37;;;;;;;9.30;3.53;;;18.50;99.90;;;;;;5032512;28;20378;-69
2023/09/22 03:51:03;;;;;;;8.40;3.03;;;18.50;99.90;;;;;;5032529;28;20142;-69
2023/09/22 03:53:29;;;;;;;6.40;2.70;;;18.50;99.90;;;;;;5032379;28;20036;-69
2023/09/22 03:55:54;;;;;;;12.95;3.47;;;18.50;99.90;;;;;;5031754;28;20030;-69
2023/09/22 03:58:21;;;;;;;6.97;3.15;;;18.50;99.90;;;;;;5031897;28;20137;-69
2023/09/22 04:00:47;;;;;;;9.35;3.10;;;18.50;99.90;;;;;;5032279;28;20034;-69
2023/09/22 04:03:13;;;;;;;9.50;3.45;;;18.50;99.90;;;;;;5032603;28;20034;-69
2023/09/22 04:05:39;;;;;;;8.30;3.28;;;18.40;99.90;;;;;;5031997;28;20026;-70
2023/09/22 04:08:05;;;;;;;7.95;3.40;;;18.40;99.90;;;;;;5032023;28;20064;-69
2023/09/22 04:10:34;;;;;;;6.75;3.50;;;18.30;99.90;;;;;;5032453;28;20065;-69
2023/09/22 04:12:59;;;;;;;7.75;3.30;;;18.30;99.90;;;;;;5047177;28;20036;-69
2023/09/22 04:15:26;;;;;;;9.75;2.97;;;18.30;99.90;;;;;;5052790;28;20017;-69
2023/09/22 04:17:52;;;;;;;6.50;2.90;;;18.30;99.90;;;;;;5052292;28;20032;-69
2023/09/22 04:20:28;;;;;;;8.10;3.30;;;18.30;99.90;;;;;;5052440;28;20116;-69
2023/09/22 04:22:55;;;;;;;12.07;3.40;;;18.30;99.90;;;;;;5052130;28;20025;-69
2023/09/22 04:25:29;;;;;;;8.82;3.17;;;18.40;99.90;;;;;;5052389;28;20029;-69
2023/09/22 04:27:57;;;;;;;12.23;4.00;;;18.30;99.90;;;;;;5051694;28;20040;-69
2023/09/22 04:30:24;;;;;;;10.10;3.72;;;18.20;99.90;;;;;;5052134;28;20098;-69
2023/09/22 04:32:51;;;;;;;8.38;3.40;;;18.10;99.90;;;;;;5051550;28;20057;-69
2023/09/22 04:35:18;;;;;;;10.63;3.55;;;18.00;99.90;;;;;;5051985;28;20040;-68
2023/09/22 04:37:44;;;;;;;6.20;3.75;;;18.00;99.90;;;;;;5051542;28;20025;-70
2023/09/22 04:40:22;;;;;;;6.53;3.08;;;18.10;99.90;;;;;;5051868;28;20102;-70
2023/09/22 04:42:49;;;;;;;8.13;3.08;;;18.10;99.90;;;;;;5051597;28;20025;-69
2023/09/22 04:45:15;;;;;;;4.88;3.13;;;18.10;99.90;;;;;;5051529;28;20381;-70
2023/09/22 04:47:41;;;;;;;8.07;3.53;;;18.20;99.90;;;;;;5051866;28;20021;-70
2023/09/22 04:50:08;;;;;;;10.55;3.38;;;18.20;99.90;;;;;;5052710;28;20025;-70
2023/09/22 04:52:34;;;;;;;8.52;3.47;;;18.20;99.90;;;;;;5055255;28;20040;-70
2023/09/22 04:54:59;;;;;;;9.55;3.10;;;18.20;99.90;;;;;;5054621;28;20025;-70
2023/09/22 04:57:25;;;;;;;8.77;3.33;;;18.20;99.90;;;;;;5051493;28;20084;-70
2023/09/22 04:59:53;;;;;;;10.20;3.35;;;18.30;99.90;;;;;;5054722;28;20040;-69
2023/09/22 05:02:18;;;;;;;9.05;3.28;;;18.30;99.90;;;;;;5054990;28;20107;-70
2023/09/22 05:04:44;;;;;;;7.82;3.00;;;18.40;99.90;;;;;;5054718;28;20125;-70
2023/09/22 05:07:11;;;;;;;6.32;3.35;;;18.40;99.90;;;;;;5055118;28;20028;-70
2023/09/22 05:09:37;;;;;;;9.65;3.25;;;18.50;99.90;;;;;;5055059;28;20032;-70
2023/09/22 05:12:03;;;;;;;4.57;2.80;;;18.50;99.90;;;;;;5054857;28;20082;-70
2023/09/22 05:14:29;;;;;;;7.20;3.10;;;18.60;99.90;;;;;;5055197;28;20033;-71
2023/09/22 05:16:55;;;;;;;5.47;2.83;;;18.60;99.90;;;;;;5054449;28;20035;-70
2023/09/22 05:19:20;;;;;;;12.65;3.80;;;18.70;99.90;;;;;;5048006;28;20112;-70
2023/09/22 05:21:46;;;;;;;10.10;3.78;;;18.80;99.90;;;;;;5034234;28;20068;-71
2023/09/22 05:24:12;;;;;;;6.32;3.38;;;18.90;99.90;;;;;;5034826;28;20032;-69
2023/09/22 05:26:37;;;;;;;6.63;2.92;;;18.90;99.90;;;;;;5017081;28;20029;-70
2023/09/22 05:29:04;;;;;;;3.80;3.03;;;18.90;99.90;;;;;;5034172;28;20036;-70
2023/09/22 05:31:30;;;;;;;4.45;3.05;;;19.00;99.90;;;;;;5034669;28;20038;-70
2023/09/22 05:33:56;;;;;;;10.07;2.72;;;19.00;99.90;;;;;;5034050;28;20108;-70
2023/09/22 05:36:21;;;;;;;4.93;3.15;;;19.10;99.90;;;;;;5034581;28;20057;-70
2023/09/22 05:38:47;;;;;;;8.63;3.03;;;19.20;99.90;;;;;;5034470;28;20111;-71
2023/09/22 05:41:13;;;;;;;8.27;3.40;;;19.30;99.90;;;;;;5034395;28;20085;-70
2023/09/22 05:43:38;;;;;;;5.57;2.88;;;19.40;99.90;;;;;;5034061;28;20026;-70
2023/09/22 05:46:04;;;;;;;6.35;3.42;;;19.40;99.90;;;;;;5016481;28;20120;-69
2023/09/22 05:48:30;;;;;;;10.82;3.75;;;19.50;99.90;;;;;;5034542;28;20029;-71
2023/09/22 05:50:56;;;;;;;6.88;3.20;;;19.60;99.90;;;;;;5034015;28;20087;-70
2023/09/22 05:53:21;;;;;;;8.30;3.50;;;19.60;99.90;;;;;;5034113;28;20423;-70
2023/09/22 05:55:47;;;;;;;6.55;3.03;;;19.60;99.90;;;;;;5033740;28;20028;-71
2023/09/22 05:58:13;;;;;;;4.80;2.53;;;19.70;99.90;;;;;;5034391;28;20053;-70
2023/09/22 06:00:39;;;;;;;4.35;2.20;;;19.70;99.90;;;;;;5016273;28;20033;-70
2023/09/22 06:03:05;;;;;;;2.85;2.03;;;19.70;99.90;;;;;;5032766;28;20025;-70
2023/09/22 06:05:31;;;;;;;9.55;2.20;;;19.70;98.80;;;;;;5033913;28;20087;-70
2023/09/22 06:07:59;;;;;;;7.68;2.38;;;19.80;98.50;;;;;;5033134;28;20026;-70
2023/09/22 06:10:25;;;;;;;4.15;1.58;;;19.80;98.40;;;;;;5034031;28;20064;-70
2023/09/22 06:12:50;;;;;;;6.22;1.73;;;19.90;97.10;;;;;;5036010;28;20105;-70
2023/09/22 06:15:16;;;;;;;8.32;2.10;;;19.90;96.60;;;;;;5033871;28;20108;-69
2023/09/22 06:17:42;;;;;;;2.67;1.67;;;20.00;95.60;;;;;;5033794;28;20025;-70
2023/09/22 06:20:15;;;;;;;2.47;1.50;;;20.10;95.30;;;;;;5033252;28;20230;-71
2023/09/22 06:22:47;;;;;;;8.10;1.67;;;20.10;95.30;;;;;;5033468;28;20478;-69
2023/09/22 06:25:13;;;;;;;3.42;1.55;;;20.20;94.60;;;;;;5033157;28;20029;-70
2023/09/22 06:27:40;;;;;;;6.38;1.80;;;20.20;94.40;;;;;;5033684;28;20018;-69
2023/09/22 06:30:10;;;;;;;1.88;1.45;;;20.30;94.30;;;;;;5033262;28;20038;-69
2023/09/22 06:32:41;;;;;;;4.53;1.98;;;20.40;94.00;;;;;;5033620;28;20041;-70
2023/09/22 06:35:11;;;;;;;5.43;1.80;;;20.40;93.70;;;;;;5015438;28;20121;-69
2023/09/22 06:37:38;;;;;;;2.10;1.88;;;20.40;93.50;;;;;;5033771;28;20040;-70
2023/09/22 06:40:11;;;;;;;1.80;1.42;;;20.60;93.20;;;;;;5032889;28;20463;-70
2023/09/22 06:42:41;;;;;;;3.85;1.88;;;20.60;93.10;;;;;;5033485;28;20065;-71
2023/09/22 06:45:09;;;;;;;4.40;1.48;;;20.80;93.20;;;;;;5032970;28;20029;-69
2023/09/22 06:47:35;;;;;;;2.95;1.50;;;20.90;92.90;;;;;;5033502;28;20363;-69
2023/09/22 06:50:05;;;;;;;2.40;1.48;;;21.00;92.50;;;;;;5032902;28;20037;-70
2023/09/22 06:52:31;;;;;;;4.70;1.60;;;21.10;92.20;;;;;;5032972;28;20033;-70
2023/09/22 06:54:57;;;;;;;4.22;1.50;;;21.20;92.20;;;;;;5032524;28;20025;-70
2023/09/22 06:57:23;;;;;;;3.55;1.42;;;21.30;91.50;;;;;;5032908;28;20045;-69
2023/09/22 06:59:51;;;;;;;2.63;1.55;;;21.40;91.60;;;;;;5032462;28;20037;-69
2023/09/22 07:02:19;;;;;;;2.20;1.63;;;21.50;91.20;;;;;;5034813;28;20544;-69
2023/09/22 07:04:44;;;;;;;4.93;1.60;;;21.70;91.00;;;;;;5032871;28;20026;-70
2023/09/22 07:07:11;;;;;;;6.60;1.67;;;22.00;89.40;;;;;;5032519;28;20451;-70
2023/09/22 07:09:37;;;;;;;3.80;1.73;;;22.30;89.70;;;;;;5032809;28;20366;-70
2023/09/22 07:12:04;;;;;;;6.95;2.15;;;22.60;88.90;;;;;;5032662;28;20037;-70
2023/09/22 07:14:32;;;;;;;2.83;1.98;;;23.00;86.90;;;;;;5032367;28;20030;-70
2023/09/22 07:16:58;;;;;;;9.00;2.20;;;23.10;86.00;;;;;;5032153;28;20363;-70
2023/09/22 07:19:24;;;;;;;7.95;2.50;;;23.30;85.40;;;;;;5032581;28;20120;-70
2023/09/22 07:21:51;;;;;;;2.88;2.10;;;23.50;84.50;;;;;;5032703;28;20447;-69
2023/09/22 07:24:17;;;;;;;7.22;2.22;;;23.50;82.80;;;;;;5032221;28;20036;-69
2023/09/22 07:26:43;;;;;;;5.65;2.22;;;23.50;82.70;;;;;;5041024;28;20017;-69
2023/09/22 07:29:09;;;;;;;3.95;2.15;;;23.70;83.00;;;;;;5052083;28;20446;-69
2023/09/22 07:31:34;;;;;;;10.65;2.92;;;24.20;82.70;;;;;;5052519;28;20033;-70
2023/09/22 07:34:00;;;;;;;4.93;2.67;;;24.80;81.20;;;;;;5052070;28;20036;-69
2023/09/22 07:36:26;;;;;;;4.63;2.35;;;26.00;78.90;;;;;;5052344;28;20025;-69
2023/09/22 07:38:53;;;;;;;6.00;2.38;;;26.50;73.90;;;;;;5052712;28;20477;-69
2023/09/22 07:41:19;;;;;;;11.18;2.97;;;26.80;73.50;;;;;;5052305;28;20175;-69
2023/09/22 07:43:45;;;;;;;5.60;2.58;;;27.30;71.80;;;;;;5052277;28;20489;-70
2023/09/22 07:46:11;;;;;;;7.05;2.40;;;28.40;68.40;;;;;;5051890;28;20021;-70
2023/09/22 07:48:37;;;;;;;7.10;2.05;;;29.40;65.10;;;;;;5052399;28;20029;-70
2023/09/22 07:51:04;;;;;;;6.30;1.85;;;30.30;61.80;;;;;;5051973;28;20079;-70
2023/09/22 07:53:30;;;;;;;5.95;1.80;;;31.00;59.60;;;;;;5051988;28;20033;-70
2023/09/22 07:55:59;;;;;;;4.60;2.10;;;31.60;57.40;;;;;;5051260;28;20465;-71
2023/09/22 07:58:29;;;;;;;4.65;1.70;;;32.30;55.50;;;;;;5051759;28;20092;-70
2023/09/22 08:00:55;;;;;;;8.68;2.45;;;32.90;52.10;;;;;;5034338;28;20068;-70
2023/09/22 08:03:21;;;;;;;4.38;2.08;;;33.30;51.00;;;;;;5052148;28;20033;-69
2023/09/22 08:05:50;;;;;;;4.85;1.90;;;33.70;49.70;;;;;;5052441;28;20032;-69
2023/09/22 08:08:17;;;;;;;5.75;1.77;;;33.40;48.30;;;;;;5051763;28;20031;-69
2023/09/22 08:10:43;;;;;;;3.75;1.23;;;33.60;48.30;;;;;;5051703;28;20412;-70
2023/09/22 08:13:09;;;;;;;4.45;1.60;;;33.70;46.50;;;;;;5051391;28;20056;-69
2023/09/22 08:15:38;;;;;;;2.10;1.40;;;33.00;46.10;;;;;;5051999;28;20033;-69
2023/09/22 08:18:05;;;;;;;4.35;1.23;;;32.40;47.00;;;;;;5051685;28;20056;-69
2023/09/22 08:20:33;;;;;;;2.17;1.20;;;32.10;47.20;;;;;;5048770;28;20052;-69
2023/09/22 08:22:59;;;;;;;3.30;1.38;;;31.60;48.80;;;;;;5051613;28;20033;-69
2023/09/22 08:25:25;;;;;;;1.60;1.50;;;30.80;48.80;;;;;;5053370;28;20465;-70
2023/09/22 08:27:52;;;;;;;5.78;1.60;;;30.30;50.00;;;;;;5038085;28;20033;-70
2023/09/22 08:30:19;;;;;;;5.07;1.95;;;29.90;50.60;;;;;;5055453;28;20041;-70
2023/09/22 08:32:45;;;;;;;2.90;1.50;;;29.70;51.10;;;;;;5055959;28;20426;-69
2023/09/22 08:35:15;;;;;;;3.30;1.40;;;29.60;51.50;;;;;;5055089;28;20104;-69
2023/09/22 08:37:42;;;;;;;3.35;1.30;;;29.40;52.00;;;;;;5055465;28;20036;-69
2023/09/22 08:40:15;;;;;;;2.42;1.20;;;29.30;53.50;;;;;;5054921;28;20033;-69
2023/09/22 08:42:43;;;;;;;2.95;1.40;;;29.30;52.80;;;;;;5055611;28;20036;-69
2023/09/22 08:45:10;;;;;;;2.13;1.38;;;29.10;52.40;;;;;;5055093;28;20024;-69
2023/09/22 08:47:40;;;;;;;1.60;1.15;;;29.00;52.90;;;;;;5055303;28;20033;-70
2023/09/22 08:50:13;;;;;;;3.00;1.40;;;28.80;54.50;;;;;;5054910;28;20029;-69
2023/09/22 08:52:40;;;;;;;1.85;1.40;;;28.80;53.60;;;;;;5055363;28;20017;-70
2023/09/22 08:55:11;;;;;;;1.60;1.35;;;28.50;53.40;;;;;;5054786;28;20128;-70
2023/09/22 08:57:39;;;;;;;2.45;1.40;;;28.20;54.40;;;;;;5051541;28;20049;-71
2023/09/22 09:00:12;;;;;;;2.10;1.65;;;28.50;54.70;;;;;;5054519;28;20044;-71
2023/09/22 09:02:39;;;;;;;4.63;1.30;;;28.60;54.80;;;;;;5055046;28;20056;-69
2023/09/22 09:05:27;;;;;;;1.55;1.23;;;28.90;53.60;;;;;;5054566;28;20029;-70
2023/09/22 09:07:53;;;;;;;2.83;1.40;;;28.90;53.50;;;;;;5054720;28;20040;-70
2023/09/22 09:10:25;;;;;;;3.38;1.60;;;28.90;53.50;;;;;;5054457;28;20052;-70
2023/09/22 09:12:52;;;;;;;1.63;1.52;;;28.90;54.20;;;;;;5054607;28;20409;-69
2023/09/22 09:15:17;;;;;;;4.07;1.40;;;28.70;54.10;;;;;;5054180;28;20032;-69
2023/09/22 09:17:43;;;;;;;3.20;1.83;;;28.50;54.30;;;;;;5036639;28;20028;-70
2023/09/22 09:20:09;;;;;;;2.95;1.35;;;28.50;54.10;;;;;;5054186;28;20106;-70
2023/09/22 09:22:37;;;;;;;2.03;1.50;;;28.70;54.10;;;;;;5054609;28;20477;-70
2023/09/22 09:25:06;;;;;;;2.28;1.58;;;28.80;53.80;;;;;;5054360;28;20033;-71
2023/09/22 09:27:31;;;;;;;2.25;1.45;;;28.70;53.90;;;;;;5054692;28;20031;-70
2023/09/22 09:29:57;;;;;;;4.30;1.63;;;28.60;54.00;;;;;;5054298;28;20107;-70
2023/09/22 09:32:24;;;;;;;2.40;1.48;;;28.80;54.30;;;;;;5052417;28;20092;-70
2023/09/22 09:34:50;;;;;;;2.97;1.30;;;28.80;54.50;;;;;;5054250;28;20032;-69
2023/09/22 09:37:17;;;;;;;2.40;1.30;;;29.00;54.30;;;;;;5034843;28;20029;-70
2023/09/22 09:39:56;;;;;;;2.85;1.65;;;29.30;54.10;;;;;;5054239;28;20037;-71
2023/09/22 09:42:25;;;;;;;2.75;1.27;;;29.40;53.70;;;;;;5053862;28;20035;-70
2023/09/22 09:44:56;;;;;;;2.70;1.70;;;29.50;51.60;;;;;;5054136;28;20028;-69
2023/09/22 09:47:24;;;;;;;2.25;1.52;;;29.50;51.90;;;;;;5054072;28;20520;-70
2023/09/22 09:49:52;;;;;;;5.60;1.58;;;29.40;50.70;;;;;;5054268;28;20350;-70
2023/09/22 09:52:26;;;;;;;3.10;1.67;;;29.50;51.50;;;;;;5053900;28;20029;-70
2023/09/22 09:55:07;;;;;;;4.03;1.70;;;29.40;51.50;;;;;;5053623;28;20354;-70
2023/09/22 09:57:34;;;;;;;3.53;1.48;;;29.50;52.00;;;;;;5053600;28;20064;-70
2023/09/22 10:00:00;;;;;;;4.43;1.40;;;29.70;52.00;;;;;;5035624;28;20124;-70
2023/09/22 10:02:27;;;;;;;2.40;1.40;;;29.80;51.60;;;;;;5053464;28;20091;-70
2023/09/22 10:04:55;;;;;;;3.03;1.58;;;29.80;50.50;;;;;;5053815;28;20063;-70
2023/09/22 10:07:21;;;;;;;2.40;1.50;;;29.90;51.30;;;;;;5053287;28;20533;-71
2023/09/22 10:09:47;;;;;;;5.18;1.40;;;30.00;50.70;;;;;;5053698;28;20124;-69
2023/09/22 10:12:13;;;;;;;3.63;1.40;;;30.10;49.30;;;;;;5053050;28;20050;-69
2023/09/22 10:14:47;;;;;;;1.52;1.15;;;30.00;49.00;;;;;;5053766;28;20053;-69
2023/09/22 10:17:24;;;;;;;3.40;1.70;;;30.00;49.90;;;;;;5049765;28;20432;-69
2023/09/22 10:19:50;;;;;;;3.72;1.63;;;29.90;49.50;;;;;;5053150;28;20040;-69
2023/09/22 10:22:16;;;;;;;2.85;1.35;;;30.00;49.90;;;;;;5052933;28;20033;-70
2023/09/22 10:24:42;;;;;;;3.05;1.52;;;30.10;49.90;;;;;;5053469;28;20025;-69
2023/09/22 10:27:15;;;;;;;4.18;1.23;;;30.10;48.60;;;;;;5052533;28;20385;-70
2023/09/22 10:29:42;;;;;;;3.30;1.23;;;30.20;49.30;;;;;;5053184;28;20033;-69
2023/09/22 10:32:17;;;;;;;2.75;1.50;;;30.20;49.90;;;;;;5052839;28;20032;-69
2023/09/22 10:34:49;;;;;;;2.97;1.40;;;30.30;48.90;;;;;;5053497;28;20025;-70
2023/09/22 10:37:19;;;;;;;3.67;1.75;;;30.40;48.70;;;;;;5052781;28;20040;-69
2023/09/22 10:40:11;;;;;;;4.78;1.80;;;30.40;48.50;;;;;;5052961;28;20120;-70
2023/09/22 10:42:46;;;;;;;5.03;1.00;;;30.50;47.90;;;;;;5053446;28;20037;-70
2023/09/22 10:45:13;;;;;;;3.03;1.48;;;30.60;48.40;;;;;;5052590;28;20059;-70
2023/09/22 10:47:45;;;;;;;3.10;1.10;;;30.70;48.80;;;;;;5052117;28;20481;-70
2023/09/22 10:50:15;;;;;;;3.50;1.27;;;30.70;48.10;;;;;;5034518;28;20041;-70
2023/09/22 10:52:51;;;;;;;4.37;1.30;;;30.60;46.80;;;;;;5033185;28;20029;-70
2023/09/22 10:55:29;;;;;;;3.33;1.20;;;30.60;47.80;;;;;;5032300;28;20382;-71
2023/09/22 10:57:55;;;;;;;2.97;1.60;;;30.50;48.10;;;;;;5033157;28;20049;-70
2023/09/22 11:00:22;;;;;;;4.32;1.40;;;30.50;48.50;;;;;;5014749;28;20456;-70
2023/09/22 11:02:48;;;;;;;3.20;1.50;;;30.40;47.40;;;;;;5032869;28;20033;-70
2023/09/22 11:05:17;;;;;;;2.63;1.30;;;30.20;48.40;;;;;;5032336;28;20484;-70
2023/09/22 11:07:44;;;;;;;3.10;1.88;;;30.30;48.70;;;;;;5032967;28;20076;-70
2023/09/22 11:10:19;;;;;;;4.60;1.73;;;30.10;49.30;;;;;;5032199;28;20025;-72
2023/09/22 11:12:52;;;;;;;3.30;1.40;;;30.10;50.10;;;;;;5032606;28;20497;-70
2023/09/22 11:15:19;;;;;;;3.80;1.60;;;30.10;50.60;;;;;;5031853;28;20466;-69
2023/09/22 11:17:48;;;;;;;5.85;1.60;;;30.30;49.60;;;;;;5032844;28;20033;-69
2023/09/22 11:20:28;;;;;;;3.28;1.38;;;30.20;49.50;;;;;;5014506;28;20029;-70
2023/09/22 11:22:57;;;;;;;6.30;1.90;;;30.20;49.60;;;;;;5032852;28;20029;-70
2023/09/22 11:25:26;;;;;;;3.67;1.52;;;30.10;50.60;;;;;;5032546;28;20029;-70
2023/09/22 11:27:53;;;;;;;3.90;1.52;;;29.90;50.40;;;;;;5032307;28;20060;-70
2023/09/22 11:30:25;;;;;;;5.45;1.65;;;30.10;50.30;;;;;;5032118;28;20188;-70
2023/09/22 11:32:52;;;;;;;2.95;1.30;;;30.20;50.10;;;;;;5032914;28;20059;-69
2023/09/22 11:35:39;;;;;;;7.22;1.58;;;30.10;49.70;;;;;;5032181;28;20037;-69
2023/09/22 11:38:30;;;;;;;3.65;1.15;;;30.00;49.40;;;;;;5048283;28;20025;-70
2023/09/22 11:41:08;;;;;;;1.35;1.02;;;30.20;50.30;;;;;;5051986;28;20025;-69
2023/09/22 11:43:39;;;;;;;2.80;1.10;;;30.30;49.60;;;;;;5051746;28;20479;-70
2023/09/22 11:46:15;;;;;;;4.75;1.38;;;30.40;49.40;;;;;;5052328;28;20037;-69
2023/09/22 11:48:59;;;;;;;6.38;1.73;;;30.50;49.60;;;;;;5052508;28;20028;-70
2023/09/22 11:51:43;;;;;;;3.42;1.50;;;30.40;49.30;;;;;;5051787;28;20033;-69
2023/09/22 11:54:10;;;;;;;3.13;1.30;;;30.30;49.60;;;;;;5034434;28;20159;-71
2023/09/22 11:56:36;;;;;;;3.72;1.60;;;30.30;49.80;;;;;;5051507;28;20052;-69
2023/09/22 11:59:15;;;;;;;3.85;1.10;;;30.30;50.10;;;;;;5051841;28;20033;-70
2023/09/22 12:01:41;;;;;;;5.13;1.33;;;30.30;49.70;;;;;;5055865;28;20025;-70
2023/09/22 12:04:10;;;;;;;3.67;1.30;;;30.20;49.90;;;;;;5056193;28;20037;-69
2023/09/22 12:06:43;;;;;;;2.17;1.10;;;30.10;50.00;;;;;;5055378;28;20465;-70
2023/09/22 12:09:15;;;;;;;5.10;1.45;;;30.10;50.90;;;;;;5056251;28;20047;-69
2023/09/22 12:11:41;;;;;;;4.78;1.38;;;30.00;51.60;;;;;;5049484;28;20052;-70
2023/09/22 12:14:08;;;;;;;5.00;1.70;;;30.00;51.70;;;;;;5036310;28;20441;-70
2023/09/22 12:16:34;;;;;;;4.60;1.88;;;30.00;51.50;;;;;;5035656;28;20037;-70
2023/09/22 12:19:00;;;;;;;4.32;1.33;;;30.00;51.20;;;;;;5036057;28;20057;-70
2023/09/22 12:21:27;;;;;;;3.78;1.20;;;29.90;51.20;;;;;;5035599;28;20439;-69
2023/09/22 12:23:53;;;;;;;3.08;1.20;;;29.80;51.60;;;;;;5035974;28;20048;-69
2023/09/22 12:26:20;;;;;;;2.60;1.30;;;29.80;51.70;;;;;;5035426;28;20104;-71
2023/09/22 12:28:46;;;;;;;4.65;1.30;;;29.70;52.10;;;;;;5035737;28;20033;-69
2023/09/22 12:31:12;;;;;;;5.72;1.70;;;29.60;52.20;;;;;;5035467;28;20031;-70
2023/09/22 12:33:38;;;;;;;5.25;1.58;;;29.50;53.00;;;;;;5035100;28;20025;-70
2023/09/22 12:36:04;;;;;;;4.50;2.30;;;29.40;52.90;;;;;;5035411;28;20044;-69
2023/09/22 12:38:30;;;;;;;4.70;1.35;;;29.30;53.20;;;;;;5034701;28;20386;-69
2023/09/22 12:40:59;;;;;;;5.10;1.70;;;29.20;53.50;;;;;;5035283;28;20030;-70
2023/09/22 12:43:25;;;;;;;6.97;1.50;;;29.00;53.70;;;;;;5034596;28;20475;-70
2023/09/22 12:45:52;;;;;;;5.50;1.25;;;28.80;54.20;;;;;;5017398;28;20117;-69
2023/09/22 12:48:17;;;;;;;4.40;1.63;;;28.70;54.40;;;;;;5034696;28;20057;-70